createdAt,value
2024-02-29T00:00:02.453Z,97821.00
2024-02-29T00:02:32.400Z,97825.56
2024-02-29T00:05:00.552Z,97820.81
2024-02-29T00:07:28.532Z,97825.08
2024-02-29T00:09:56.427Z,97825.38
2024-02-29T00:12:24.689Z,97826.19
2024-02-29T00:14:52.681Z,97826.48
2024-02-29T00:17:22.014Z,97826.98
2024-02-29T00:19:49.901Z,97834.20
2024-02-29T00:22:17.779Z,97827.83
2024-02-29T00:24:45.704Z,97829.41
2024-02-29T00:27:13.532Z,97822.20
2024-02-29T00:29:43.718Z,97826.74
2024-02-29T00:32:12.030Z,97823.03
2024-02-29T00:34:39.902Z,97826.51
2024-02-29T00:37:08.085Z,97824.94
2024-02-29T00:39:36.263Z,97833.51
2024-02-29T00:42:04.364Z,97831.14
2024-02-29T00:44:32.263Z,97827.45
2024-02-29T00:47:00.503Z,97826.97
2024-02-29T00:49:28.557Z,97815.75
2024-02-29T00:51:56.642Z,97813.89
2024-02-29T00:54:25.458Z,97813.64
2024-02-29T00:56:53.412Z,97816.57
2024-02-29T00:59:21.656Z,97820.58
2024-02-29T01:01:49.774Z,97817.12
2024-02-29T01:04:18.061Z,97815.83
2024-02-29T01:06:46.111Z,97819.84
2024-02-29T01:09:14.052Z,97819.31
2024-02-29T01:11:42.485Z,97815.87
2024-02-29T01:14:10.393Z,97814.28
2024-02-29T01:16:38.170Z,97817.20
2024-02-29T01:19:07.245Z,97819.08
2024-02-29T01:21:35.534Z,97817.78
2024-02-29T01:24:03.436Z,97819.63
2024-02-29T01:26:32.399Z,97817.74
2024-02-29T01:29:00.389Z,97815.37
2024-02-29T01:31:28.405Z,97819.08
2024-02-29T01:33:56.418Z,97816.95
2024-02-29T01:36:24.418Z,97817.78
2024-02-29T01:38:52.529Z,97811.63
2024-02-29T01:41:20.637Z,97813.50
2024-02-29T01:43:55.100Z,97812.47
2024-02-29T01:46:24.982Z,97818.59
2024-02-29T01:48:55.415Z,97815.39
2024-02-29T01:51:24.840Z,97821.81
2024-02-29T01:53:53.227Z,97820.77
2024-02-29T01:56:22.443Z,97817.28
2024-02-29T01:58:50.436Z,97817.56
2024-02-29T02:01:19.595Z,97815.14
2024-02-29T02:03:48.392Z,97820.72
2024-02-29T02:06:16.486Z,97815.94
2024-02-29T02:08:46.364Z,97815.14
2024-02-29T02:11:14.462Z,97809.27
2024-02-29T02:13:42.582Z,97807.69
2024-02-29T02:16:11.629Z,97812.23
2024-02-29T02:18:39.745Z,97813.57
2024-02-29T02:21:07.850Z,97817.04
2024-02-29T02:23:35.746Z,97817.08
2024-02-29T02:26:03.895Z,97810.67
2024-02-29T02:28:31.929Z,97811.75
2024-02-29T02:30:59.826Z,97816.54
2024-02-29T02:33:27.632Z,97816.79
2024-02-29T02:35:56.486Z,97817.04
2024-02-29T02:38:24.597Z,97818.91
2024-02-29T02:40:52.360Z,97817.58
2024-02-29T02:43:20.468Z,97818.38
2024-02-29T02:45:48.438Z,97818.66
2024-02-29T02:48:16.480Z,97817.32
2024-02-29T02:50:44.599Z,97812.23
2024-02-29T02:53:12.691Z,97814.91
2024-02-29T02:55:40.637Z,97815.70
2024-02-29T02:58:09.105Z,97807.45
2024-02-29T03:00:37.571Z,97807.70
2024-02-29T03:03:05.639Z,97807.45
2024-02-29T03:05:33.786Z,97803.98
2024-02-29T03:08:04.092Z,97802.66
2024-02-29T03:10:32.179Z,97809.57
2024-02-29T03:13:00.057Z,97804.79
2024-02-29T03:15:28.067Z,97807.20
2024-02-29T03:17:56.814Z,97815.20
2024-02-29T03:20:25.194Z,97811.20
2024-02-29T03:22:53.058Z,97811.76
2024-02-29T03:25:21.057Z,97813.39
2024-02-29T03:27:50.832Z,97809.94
2024-02-29T03:30:18.917Z,97813.39
2024-02-29T03:32:46.732Z,97818.48
2024-02-29T03:35:14.746Z,97816.32
2024-02-29T03:37:42.549Z,97819.53
2024-02-29T03:40:11.563Z,97819.28
2024-02-29T03:42:40.205Z,97819.57
2024-02-29T03:45:08.781Z,97826.23
2024-02-29T03:47:36.942Z,97821.95
2024-02-29T03:50:05.554Z,97819.83
2024-02-29T03:52:33.507Z,97824.62
2024-02-29T03:55:01.381Z,97822.51
2024-02-29T03:57:29.395Z,97824.67
2024-02-29T03:59:57.857Z,97824.68
2024-02-29T04:02:25.755Z,97823.36
2024-02-29T04:04:54.954Z,97823.66
2024-02-29T04:07:22.810Z,97832.73
2024-02-29T04:09:52.640Z,97834.91
2024-02-29T04:12:20.515Z,97831.71
2024-02-29T04:14:48.473Z,97833.88
2024-02-29T04:17:16.332Z,97835.20
2024-02-29T04:19:46.092Z,97835.21
2024-02-29T04:22:17.438Z,97836.29
2024-02-29T04:24:45.406Z,97840.84
2024-02-29T04:27:13.334Z,97841.63
2024-02-29T04:29:41.372Z,97846.95
2024-02-29T04:32:09.286Z,97840.58
2024-02-29T04:34:37.461Z,97842.17
2024-02-29T04:37:05.771Z,97833.64
2024-02-29T04:39:33.705Z,97836.34
2024-02-29T04:42:01.657Z,97840.34
2024-02-29T04:44:29.485Z,97835.81
2024-02-29T04:46:57.473Z,97842.22
2024-02-29T04:49:25.315Z,97837.98
2024-02-29T04:51:54.163Z,97836.94
2024-02-29T04:54:22.218Z,97842.80
2024-02-29T04:56:50.153Z,97843.89
2024-02-29T04:59:17.978Z,97844.97
2024-02-29T05:01:46.232Z,97850.58
2024-02-29T05:04:14.449Z,97842.09
2024-02-29T05:06:42.462Z,97849.29
2024-02-29T05:09:10.543Z,97848.50
2024-02-29T05:11:39.882Z,97855.16
2024-02-29T05:14:10.119Z,97859.72
2024-02-29T05:16:38.318Z,97856.52
2024-02-29T05:19:06.241Z,97857.31
2024-02-29T05:21:34.327Z,97854.89
2024-02-29T05:24:02.281Z,97858.89
2024-02-29T05:26:30.171Z,97861.81
2024-02-29T05:28:57.970Z,97859.63
2024-02-29T05:31:25.865Z,97864.11
2024-02-29T05:33:54.002Z,97872.56
2024-02-29T05:36:23.570Z,97872.22
2024-02-29T05:38:51.647Z,97868.66
2024-02-29T05:41:19.579Z,97871.69
2024-02-29T05:43:47.316Z,97879.17
2024-02-29T05:46:16.091Z,97881.28
2024-02-29T05:48:44.204Z,97884.77
2024-02-29T05:51:12.546Z,97890.38
2024-02-29T05:53:40.821Z,97883.06
2024-02-29T05:56:08.671Z,97887.41
2024-02-29T05:58:36.804Z,97888.59
2024-02-29T06:01:05.141Z,97886.56
2024-02-29T06:03:33.198Z,97882.35
2024-02-29T06:06:01.263Z,97888.70
2024-02-29T06:08:29.765Z,97899.80
2024-02-29T06:10:57.957Z,97904.83
2024-02-29T06:13:25.968Z,97897.55
2024-02-29T06:15:53.709Z,97893.64
2024-02-29T06:18:22.440Z,97902.00
2024-02-29T06:20:50.391Z,97898.58
2024-02-29T06:23:19.274Z,97895.61
2024-02-29T06:25:48.908Z,97896.45
2024-02-29T06:28:19.503Z,97893.73
2024-02-29T06:30:47.423Z,97892.19
2024-02-29T06:33:15.509Z,97892.72
2024-02-29T06:35:43.703Z,97892.33
2024-02-29T06:38:15.669Z,97897.22
2024-02-29T06:40:43.924Z,97900.56
2024-02-29T06:43:11.878Z,97896.45
2024-02-29T06:45:45.061Z,97895.10
2024-02-29T06:48:13.000Z,97893.28
2024-02-29T06:50:40.702Z,97887.83
2024-02-29T06:53:08.517Z,97889.73
2024-02-29T06:55:37.453Z,97886.69
2024-02-29T06:58:06.306Z,97881.83
2024-02-29T07:00:34.731Z,97880.10
2024-02-29T07:03:02.546Z,97884.03
2024-02-29T07:05:33.373Z,97882.66
2024-02-29T07:08:01.955Z,97888.44
2024-02-29T07:10:30.822Z,97891.50
2024-02-29T07:12:59.030Z,97889.17
2024-02-29T07:15:27.161Z,97885.25
2024-02-29T07:17:55.004Z,97894.12
2024-02-29T07:20:25.856Z,97884.91
2024-02-29T07:22:53.390Z,97886.26
2024-02-29T07:25:21.519Z,97877.84
2024-02-29T07:27:49.981Z,97870.62
2024-02-29T07:30:19.151Z,97873.06
2024-02-29T07:32:47.334Z,97871.34
2024-02-29T07:35:17.009Z,97873.44
2024-02-29T07:37:45.477Z,97873.22
2024-02-29T07:40:13.973Z,97879.02
2024-02-29T07:42:41.854Z,97868.56
2024-02-29T07:45:10.408Z,97871.61
2024-02-29T07:47:40.703Z,97873.19
2024-02-29T07:50:10.277Z,97876.97
2024-02-29T07:52:38.048Z,97872.70
2024-02-29T07:55:06.314Z,97870.65
2024-02-29T07:57:35.571Z,97866.08
2024-02-29T08:00:04.968Z,97869.84
2024-02-29T08:02:34.666Z,97873.32
2024-02-29T08:05:02.772Z,97873.56
2024-02-29T08:07:31.145Z,97871.90
2024-02-29T08:09:58.898Z,97871.87
2024-02-29T08:12:27.081Z,97871.50
2024-02-29T08:14:54.878Z,97877.55
2024-02-29T08:17:26.048Z,97873.09
2024-02-29T08:19:54.485Z,97869.95
2024-02-29T08:22:22.545Z,97865.64
2024-02-29T08:24:50.461Z,97864.47
2024-02-29T08:27:18.404Z,97864.44
2024-02-29T08:29:46.295Z,97861.42
2024-02-29T08:32:15.894Z,97855.23
2024-02-29T08:34:45.096Z,97857.34
2024-02-29T08:37:13.140Z,97854.05
2024-02-29T08:39:41.734Z,97856.80
2024-02-29T08:42:10.333Z,97853.37
2024-02-29T08:44:43.727Z,97845.38
2024-02-29T08:47:11.596Z,97842.00
2024-02-29T08:49:39.741Z,97839.35
2024-02-29T08:52:08.530Z,97834.83
2024-02-29T08:54:36.948Z,97830.74
2024-02-29T08:57:06.764Z,97830.14
2024-02-29T08:59:35.224Z,97823.50
2024-02-29T09:02:03.475Z,97817.47
2024-02-29T09:04:31.569Z,97812.14
2024-02-29T09:06:59.504Z,97802.38
2024-02-29T09:09:30.462Z,97806.07
2024-02-29T09:11:58.554Z,97801.59
2024-02-29T09:14:26.591Z,97794.25
2024-02-29T09:16:54.592Z,97791.91
2024-02-29T09:19:22.683Z,97793.47
2024-02-29T09:21:50.753Z,97799.16
2024-02-29T09:24:18.812Z,97785.78
2024-02-29T09:26:46.732Z,97787.46
2024-02-29T09:29:14.652Z,97782.58
2024-02-29T09:31:44.204Z,97782.66
2024-02-29T09:34:12.437Z,97778.95
2024-02-29T09:36:40.373Z,97778.84
2024-02-29T09:39:08.361Z,97776.44
2024-02-29T09:41:58.842Z,97771.59
2024-02-29T09:44:09.421Z,97764.81
2024-02-29T09:46:39.212Z,97769.34
2024-02-29T09:49:08.663Z,97769.28
2024-02-29T09:51:38.496Z,97767.42
2024-02-29T09:54:07.339Z,97769.29
2024-02-29T09:56:35.720Z,97767.66
2024-02-29T09:59:04.542Z,97768.37
2024-02-29T10:01:32.484Z,97764.16
2024-02-29T10:04:02.839Z,97761.01
2024-02-29T10:06:35.706Z,97755.50
2024-02-29T10:09:03.816Z,97754.31
2024-02-29T10:11:32.586Z,97759.10
2024-02-29T10:14:02.170Z,97753.43
2024-02-29T10:16:32.109Z,97742.28
2024-02-29T10:19:01.636Z,97737.63
2024-02-29T10:21:33.910Z,97738.65
2024-02-29T10:24:01.764Z,97741.77
2024-02-29T10:26:29.722Z,97736.34
2024-02-29T10:29:06.131Z,97725.98
2024-02-29T10:31:34.156Z,97722.84
2024-02-29T10:34:02.082Z,97718.53
2024-02-29T10:36:34.803Z,97713.10
2024-02-29T10:39:02.928Z,97711.61
2024-02-29T10:41:32.801Z,97706.95
2024-02-29T10:44:05.338Z,97704.81
2024-02-29T10:46:36.963Z,97705.52
2024-02-29T10:49:13.195Z,97702.33
2024-02-29T10:51:48.028Z,97700.33
2024-02-29T10:54:20.822Z,97693.88
2024-02-29T10:56:52.622Z,97678.72
2024-02-29T10:59:21.002Z,97679.30
2024-02-29T11:01:49.655Z,97693.20
2024-02-29T11:04:17.917Z,97696.86
2024-02-29T11:06:48.875Z,97693.13
2024-02-29T11:09:23.241Z,97690.20
2024-02-29T11:12:11.862Z,97688.58
2024-02-29T11:14:45.477Z,97689.80
2024-02-29T11:17:16.982Z,97676.42
2024-02-29T11:19:52.005Z,97664.36
2024-02-29T11:22:16.799Z,97661.88
2024-02-29T11:24:46.751Z,97674.05
2024-02-29T11:27:14.658Z,97675.98
2024-02-29T11:29:49.091Z,97682.98
2024-02-29T11:32:26.899Z,97681.99
2024-02-29T11:34:56.320Z,97673.70
2024-02-29T11:37:28.137Z,97667.69
2024-02-29T11:40:09.060Z,97665.31
2024-02-29T11:42:38.909Z,97661.03
2024-02-29T11:45:08.587Z,97654.62
2024-02-29T11:47:36.626Z,97656.75
2024-02-29T11:50:05.016Z,97664.47
2024-02-29T11:52:33.150Z,97664.27
2024-02-29T11:55:03.901Z,97659.98
2024-02-29T11:57:32.034Z,97663.69
2024-02-29T12:00:00.611Z,97658.45
2024-02-29T12:02:28.802Z,97655.40
2024-02-29T12:04:58.881Z,97657.53
2024-02-29T12:07:26.800Z,97654.24
2024-02-29T12:09:54.948Z,97654.62
2024-02-29T12:12:23.057Z,97648.95
2024-02-29T12:14:52.234Z,97646.81
2024-02-29T12:17:20.513Z,97643.52
2024-02-29T12:19:48.255Z,97642.09
2024-02-29T12:22:19.578Z,97636.05
2024-02-29T12:24:47.458Z,97638.12
2024-02-29T12:27:15.815Z,97641.75
2024-02-29T12:29:44.241Z,97628.88
2024-02-29T12:32:12.086Z,97631.39
2024-02-29T12:34:44.802Z,97629.25
2024-02-29T12:37:12.859Z,97631.97
2024-02-29T12:39:41.099Z,97624.16
2024-02-29T12:42:09.065Z,97617.17
2024-02-29T12:44:37.568Z,97627.05
2024-02-29T12:47:05.512Z,97628.10
2024-02-29T12:49:33.367Z,97628.67
2024-02-29T12:52:01.248Z,97623.89
2024-02-29T12:54:43.997Z,97627.55
2024-02-29T12:57:12.266Z,97625.95
2024-02-29T12:59:40.839Z,97632.91
2024-02-29T13:02:08.792Z,97623.09
2024-02-29T13:04:36.993Z,97628.63
2024-02-29T13:09:55.865Z,97619.11
2024-02-29T13:12:23.988Z,97618.18
2024-02-29T13:14:51.692Z,97621.36
2024-02-29T13:17:19.436Z,97617.02
2024-02-29T13:19:47.871Z,97614.59
2024-02-29T13:22:15.974Z,97610.86
2024-02-29T13:24:45.726Z,97611.02
2024-02-29T13:27:13.764Z,97603.22
2024-02-29T13:29:41.635Z,97603.59
2024-02-29T13:32:09.571Z,97603.92
2024-02-29T13:34:37.761Z,97605.28
2024-02-29T13:37:05.992Z,97601.78
2024-02-29T13:39:36.509Z,97594.59
2024-02-29T13:42:06.154Z,97598.00
2024-02-29T13:44:33.870Z,97596.57
2024-02-29T13:47:03.601Z,97601.16
2024-02-29T13:49:32.082Z,97602.09
2024-02-29T13:52:00.013Z,97598.36
2024-02-29T13:54:27.787Z,97594.66
2024-02-29T13:56:56.666Z,97594.66
2024-02-29T13:59:24.941Z,97594.80
2024-02-29T14:01:52.969Z,97592.45
2024-02-29T14:04:21.405Z,97594.14
2024-02-29T14:06:49.434Z,97597.34
2024-02-29T14:09:17.579Z,97595.91
2024-02-29T14:11:45.452Z,97590.41
2024-02-29T14:14:13.535Z,97600.27
2024-02-29T14:16:42.088Z,97598.46
2024-02-29T14:19:10.497Z,97593.97
2024-02-29T14:21:39.420Z,97599.52
2024-02-29T14:24:07.287Z,97600.22
2024-02-29T14:26:35.214Z,97600.14
2024-02-29T14:29:04.147Z,97600.27
2024-02-29T14:31:32.034Z,97600.55
2024-02-29T14:34:00.584Z,97586.95
2024-02-29T14:36:28.582Z,97597.22
2024-02-29T14:38:56.443Z,97594.22
2024-02-29T14:41:26.000Z,97599.09
2024-02-29T14:43:54.005Z,97596.09
2024-02-29T14:46:22.468Z,97595.55
2024-02-29T14:48:51.572Z,97590.41
2024-02-29T14:51:19.604Z,97589.30
2024-02-29T14:53:51.582Z,97594.98
2024-02-29T14:56:27.621Z,97594.11
2024-02-29T14:58:58.422Z,97589.88
2024-02-29T15:01:26.809Z,97584.84
2024-02-29T15:03:54.838Z,97589.35
2024-02-29T15:06:22.863Z,97587.66
2024-02-29T15:08:52.079Z,97585.80
2024-02-29T15:11:19.937Z,97588.16
2024-02-29T15:13:47.776Z,97587.08
2024-02-29T15:16:17.148Z,97591.94
2024-02-29T15:18:45.245Z,97586.78
2024-02-29T15:21:13.323Z,97584.87
2024-02-29T15:23:41.432Z,97585.47
2024-02-29T15:26:11.284Z,97582.23
2024-02-29T15:28:43.979Z,97586.31
2024-02-29T15:31:12.197Z,97592.87
2024-02-29T15:33:40.081Z,97591.64
2024-02-29T15:36:11.520Z,97592.21
2024-02-29T15:38:39.847Z,97584.14
2024-02-29T15:41:07.709Z,97583.68
2024-02-29T15:43:35.722Z,97589.12
2024-02-29T15:46:03.885Z,97587.55
2024-02-29T15:48:31.846Z,97583.83
2024-02-29T15:50:59.830Z,97585.87
2024-02-29T15:53:27.757Z,97581.11
2024-02-29T15:55:55.657Z,97572.35
2024-02-29T15:58:23.835Z,97571.20
2024-02-29T16:00:51.858Z,97569.75
2024-02-29T16:03:20.095Z,97575.81
2024-02-29T16:05:48.181Z,97573.23
2024-02-29T16:08:16.036Z,97571.74
2024-02-29T16:10:43.980Z,97572.39
2024-02-29T16:13:12.100Z,97571.71
2024-02-29T16:15:39.977Z,97570.91
2024-02-29T16:18:09.656Z,97564.45
2024-02-29T16:20:37.416Z,97570.16
2024-02-29T16:23:05.376Z,97563.61
2024-02-29T16:25:33.286Z,97566.41
2024-02-29T16:28:02.971Z,97563.55
2024-02-29T16:30:32.064Z,97564.22
2024-02-29T16:32:59.758Z,97560.36
2024-02-29T16:35:27.995Z,97563.22
2024-02-29T16:37:58.461Z,97557.09
2024-02-29T16:40:26.061Z,97557.50
2024-02-29T16:42:54.645Z,97553.72
2024-02-29T16:45:23.637Z,97550.62
2024-02-29T16:47:51.749Z,97552.17
2024-02-29T16:50:21.250Z,97555.03
2024-02-29T16:52:50.885Z,97553.66
2024-02-29T16:55:18.846Z,97559.69
2024-02-29T16:57:47.191Z,97553.91
2024-02-29T17:00:17.753Z,97560.84
2024-02-29T17:02:46.066Z,97558.09
2024-02-29T17:05:14.400Z,97553.69
2024-02-29T17:07:45.313Z,97547.15
2024-02-29T17:10:13.820Z,97555.61
2024-02-29T17:12:42.697Z,97545.04
2024-02-29T17:15:11.314Z,97546.23
2024-02-29T17:17:39.422Z,97545.61
2024-02-29T17:20:08.668Z,97542.55
2024-02-29T17:22:36.733Z,97542.18
2024-02-29T17:25:05.552Z,97543.94
2024-02-29T17:27:33.319Z,97543.09
2024-02-29T17:30:01.090Z,97540.09
2024-02-29T17:32:30.962Z,97541.11
2024-02-29T17:34:58.856Z,97532.97
2024-02-29T17:37:29.301Z,97533.13
2024-02-29T17:39:56.667Z,97531.48
2024-02-29T17:42:29.085Z,97530.09
2024-02-29T17:44:56.889Z,97529.67
2024-02-29T17:47:24.875Z,97528.25
2024-02-29T17:49:52.853Z,97524.73
2024-02-29T17:52:20.784Z,97531.92
2024-02-29T17:54:48.810Z,97531.77
2024-02-29T17:57:16.954Z,97536.20
2024-02-29T17:59:45.115Z,97538.47
2024-02-29T18:02:13.122Z,97541.63
2024-02-29T18:04:41.121Z,97546.37
2024-02-29T18:07:08.998Z,97543.05
2024-02-29T18:09:38.760Z,97548.58
2024-02-29T18:12:08.298Z,97540.44
2024-02-29T18:14:36.300Z,97545.48
2024-02-29T18:17:04.518Z,97540.56
2024-02-29T18:19:32.420Z,97536.77
2024-02-29T18:22:00.485Z,97538.80
2024-02-29T18:24:30.759Z,97539.80
2024-02-29T18:26:58.669Z,97540.81
2024-02-29T18:29:27.715Z,97541.75
2024-02-29T18:31:55.925Z,97550.19
2024-02-29T18:34:25.951Z,97542.03
2024-02-29T18:36:54.286Z,97534.92
2024-02-29T18:39:23.565Z,97536.63
2024-02-29T18:41:51.768Z,97538.67
2024-02-29T18:44:19.652Z,97537.70
2024-02-29T18:46:47.542Z,97540.45
2024-02-29T18:49:16.025Z,97531.13
2024-02-29T18:51:48.826Z,97529.14
2024-02-29T18:54:18.491Z,97531.66
2024-02-29T18:56:48.231Z,97523.44
2024-02-29T18:59:16.932Z,97525.94
2024-02-29T19:01:45.537Z,97520.11
2024-02-29T19:04:18.486Z,97529.58
2024-02-29T19:06:49.160Z,97533.66
2024-02-29T19:09:17.561Z,97528.12
2024-02-29T19:11:45.591Z,97527.95
2024-02-29T19:14:13.532Z,97534.94
2024-02-29T19:16:45.280Z,97537.94
2024-02-29T19:19:13.513Z,97532.63
2024-02-29T19:21:41.553Z,97535.37
2024-02-29T19:24:11.415Z,97537.64
2024-02-29T19:26:39.438Z,97537.52
2024-02-29T19:29:07.255Z,97533.92
2024-02-29T19:31:35.024Z,97532.48
2024-02-29T19:34:04.703Z,97532.30
2024-02-29T19:36:32.867Z,97533.19
2024-02-29T19:39:01.872Z,97539.47
2024-02-29T19:41:29.850Z,97547.56
2024-02-29T19:43:57.951Z,97547.32
2024-02-29T19:46:26.126Z,97548.66
2024-02-29T19:48:54.929Z,97563.16
2024-02-29T19:51:23.152Z,97565.84
2024-02-29T19:53:50.960Z,97562.84
2024-02-29T19:56:18.979Z,97566.62
2024-02-29T19:58:47.077Z,97561.03
2024-02-29T20:01:15.033Z,97558.64
2024-02-29T20:03:43.156Z,97564.00
2024-02-29T20:06:11.523Z,97549.58
2024-02-29T20:08:41.636Z,97548.80
2024-02-29T20:11:09.826Z,97558.22
2024-02-29T20:13:38.151Z,97548.66
2024-02-29T20:16:07.552Z,97546.81
2024-02-29T20:18:37.338Z,97544.22
2024-02-29T20:21:05.885Z,97548.52
2024-02-29T20:23:34.578Z,97554.19
2024-02-29T20:26:03.120Z,97550.73
2024-02-29T20:28:33.356Z,97544.31
2024-02-29T20:31:03.439Z,97540.30
2024-02-29T20:33:31.492Z,97539.75
2024-02-29T20:35:59.426Z,97538.48
2024-02-29T20:38:27.272Z,97541.69
2024-02-29T20:40:55.289Z,97534.76
2024-02-29T20:43:23.402Z,97536.88
2024-02-29T20:45:51.807Z,97533.97
2024-02-29T20:48:21.869Z,97530.50
2024-02-29T20:50:50.374Z,97530.50
2024-02-29T20:53:32.055Z,97531.34
2024-02-29T20:56:00.830Z,97527.88
2024-02-29T20:58:28.881Z,97519.89
2024-02-29T21:00:59.498Z,97531.70
2024-02-29T21:03:34.540Z,97523.98
2024-02-29T21:06:02.460Z,97512.27
2024-02-29T21:08:36.751Z,97499.80
2024-02-29T21:11:04.993Z,97500.35
2024-02-29T21:13:34.342Z,97500.16
2024-02-29T21:16:02.524Z,97497.30
2024-02-29T21:18:30.509Z,97497.42
2024-02-29T21:20:58.443Z,97487.05
2024-02-29T21:23:27.493Z,97486.86
2024-02-29T21:25:55.358Z,97485.33
2024-02-29T21:28:23.438Z,97479.80
2024-02-29T21:30:51.845Z,97478.77
2024-02-29T21:33:20.865Z,97482.83
2024-02-29T21:35:50.954Z,97467.83
2024-02-29T21:38:19.058Z,97457.41
2024-02-29T21:40:46.870Z,97448.96
2024-02-29T21:43:15.002Z,97442.03
2024-02-29T21:45:43.512Z,97441.84
2024-02-29T21:48:11.357Z,97433.87
2024-02-29T21:50:41.262Z,97431.55
2024-02-29T21:53:09.190Z,97438.05
2024-02-29T21:55:38.397Z,97440.22
2024-02-29T21:58:06.971Z,97445.33
2024-02-29T22:00:34.996Z,97445.88
2024-02-29T22:03:02.794Z,97442.15
2024-02-29T22:05:30.663Z,97427.44
2024-02-29T22:08:00.325Z,97417.61
2024-02-29T22:10:28.521Z,97422.41
2024-02-29T22:12:57.316Z,97425.31
2024-02-29T22:15:27.494Z,97439.20
2024-02-29T22:17:57.710Z,97433.84
2024-02-29T22:20:25.142Z,97426.84
2024-02-29T22:22:53.366Z,97427.39
2024-02-29T22:25:21.525Z,97428.69
2024-02-29T22:27:49.609Z,97424.13
2024-02-29T22:30:18.335Z,97430.02
2024-02-29T22:32:46.315Z,97437.73
2024-02-29T22:35:14.468Z,97436.71
2024-02-29T22:37:42.441Z,97436.71
2024-02-29T22:40:11.069Z,97427.82
2024-02-29T22:42:38.845Z,97424.31
2024-02-29T22:45:10.299Z,97415.69
2024-02-29T22:47:38.399Z,97408.41
2024-02-29T22:50:07.171Z,97402.98
2024-02-29T22:52:35.487Z,97403.48
2024-02-29T22:55:05.920Z,97395.45
2024-02-29T22:57:33.934Z,97399.15
2024-02-29T23:00:03.927Z,97395.14
2024-02-29T23:02:31.868Z,97393.25
2024-02-29T23:05:00.301Z,97398.87
2024-02-29T23:07:28.235Z,97393.98
2024-02-29T23:09:56.740Z,97383.00
2024-02-29T23:12:24.742Z,97378.67
2024-02-29T23:14:52.631Z,97381.06
2024-02-29T23:17:20.553Z,97379.72
2024-02-29T23:19:48.444Z,97379.95
2024-02-29T23:22:16.398Z,97375.58
2024-02-29T23:24:45.606Z,97379.83
2024-02-29T23:27:14.553Z,97384.34
2024-02-29T23:29:42.519Z,97383.23
2024-02-29T23:32:11.951Z,97391.53
2024-02-29T23:34:40.565Z,97394.73
2024-02-29T23:37:09.953Z,97389.92
2024-02-29T23:39:38.275Z,97383.55
2024-02-29T23:42:06.370Z,97373.92
2024-02-29T23:44:34.256Z,97370.77
2024-02-29T23:47:02.203Z,97364.14
2024-02-29T23:49:29.977Z,97358.55
2024-02-29T23:51:57.933Z,97353.25
2024-02-29T23:54:25.798Z,97349.55
2024-02-29T23:56:53.777Z,97345.91
2024-02-29T23:59:21.787Z,97333.92
